Airports Norway Rørvik Airport Ryum

Rørvik Airport Ryum (ENRM / RVK)

Facts about Rørvik Airport Ryum

Name Rørvik Airport Ryum
City Rørvik
Country Norway
ICAO code ENRM
IATA code RVK
Elevation 4.2672 meters (14 feet)

Weather

METAR

Metar data retrieved Saturday, 20 July 2024 at 00:25 UTC (26 minutes ago)

ENRM 192350Z AUTO 03002KT 9999 NCD 11/10 Q1017

Live traffic

Navigraph Charts (account required)